Terminal Aerodrome Forecast
Issued by NWS Tiyan, Guam

Home | Current Version | Previous Version | Text Only | Print | Product List | Glossary On
Versions: 1 2 3 4 5 6 7 8 9 10 11 12
000
FTPQ31 PGUM 271720
TAFGUM
TAF
PGUM 271720Z 2718/2824 VRB03KT P6SM VCSH FEW025 FEW060
     FM280200 VRB06KT P6SM VCSH SCT020 SCT050
      TEMPO 2802/2806 -SHRA SCT016 BKN030=

USA.gov is the U.S. government's official web portal to all federal, state and local government web resources and services.